sensor_id;sensor_type;location;lat;lon;timestamp;pressure;altitude;pressure_sealevel;temperature;humidity
27984;BME280;15317;50.360;8.726;2023-03-13T00:00:57;98734.69;;;6.39;100.00
27984;BME280;15317;50.360;8.726;2023-03-13T00:04:59;98718.03;;;6.43;100.00
27984;BME280;15317;50.360;8.726;2023-03-13T00:09:02;98710.94;;;6.42;100.00
27984;BME280;15317;50.360;8.726;2023-03-13T00:13:07;98712.41;;;6.37;100.00
27984;BME280;15317;50.360;8.726;2023-03-13T00:17:09;98706.94;;;6.46;100.00
27984;BME280;15317;50.360;8.726;2023-03-13T00:21:12;98710.81;;;6.61;100.00
27984;BME280;15317;50.360;8.726;2023-03-13T00:25:14;98698.22;;;6.70;100.00
27984;BME280;15317;50.360;8.726;2023-03-13T00:29:17;98688.66;;;6.75;100.00
27984;BME280;15317;50.360;8.726;2023-03-13T00:33:19;98689.06;;;6.81;100.00
27984;BME280;15317;50.360;8.726;2023-03-13T00:37:22;98678.78;;;6.84;100.00
27984;BME280;15317;50.360;8.726;2023-03-13T00:41:26;98675.66;;;6.89;100.00
27984;BME280;15317;50.360;8.726;2023-03-13T00:45:30;98670.41;;;6.87;100.00
27984;BME280;15317;50.360;8.726;2023-03-13T00:49:33;98656.06;;;6.87;100.00
27984;BME280;15317;50.360;8.726;2023-03-13T00:53:36;98645.09;;;6.88;100.00
27984;BME280;15317;50.360;8.726;2023-03-13T01:02:50;98627.88;;;6.89;100.00
27984;BME280;15317;50.360;8.726;2023-03-13T01:07:05;98621.97;;;6.86;100.00
27984;BME280;15317;50.360;8.726;2023-03-13T01:11:11;98619.31;;;6.94;100.00
27984;BME280;15317;50.360;8.726;2023-03-13T01:15:15;98628.13;;;6.96;100.00
27984;BME280;15317;50.360;8.726;2023-03-13T01:19:23;98619.75;;;7.07;100.00
27984;BME280;15317;50.360;8.726;2023-03-13T01:23:26;98611.28;;;7.02;100.00
27984;BME280;15317;50.360;8.726;2023-03-13T01:27:28;98604.19;;;7.01;100.00
27984;BME280;15317;50.360;8.726;2023-03-13T01:31:32;98591.38;;;7.03;100.00
27984;BME280;15317;50.360;8.726;2023-03-13T01:35:36;98584.50;;;7.08;100.00
27984;BME280;15317;50.360;8.726;2023-03-13T01:39:38;98567.44;;;7.08;100.00
27984;BME280;15317;50.360;8.726;2023-03-13T01:43:42;98559.50;;;7.06;100.00
27984;BME280;15317;50.360;8.726;2023-03-13T01:47:44;98548.72;;;7.06;100.00
27984;BME280;15317;50.360;8.726;2023-03-13T01:51:49;98538.75;;;7.07;100.00
27984;BME280;15317;50.360;8.726;2023-03-13T01:55:53;98539.81;;;7.14;100.00
27984;BME280;15317;50.360;8.726;2023-03-13T01:59:59;98523.44;;;7.16;100.00
27984;BME280;15317;50.360;8.726;2023-03-13T02:04:04;98511.94;;;7.13;100.00
27984;BME280;15317;50.360;8.726;2023-03-13T02:08:12;98512.47;;;7.17;100.00
27984;BME280;15317;50.360;8.726;2023-03-13T02:12:24;98498.13;;;7.17;100.00
27984;BME280;15317;50.360;8.726;2023-03-13T02:16:29;98507.44;;;7.22;100.00
27984;BME280;15317;50.360;8.726;2023-03-13T02:20:33;98503.03;;;7.21;100.00
27984;BME280;15317;50.360;8.726;2023-03-13T02:24:40;98491.19;;;7.14;100.00
27984;BME280;15317;50.360;8.726;2023-03-13T02:28:48;98488.78;;;7.03;100.00
27984;BME280;15317;50.360;8.726;2023-03-13T02:32:51;98471.56;;;6.96;100.00
27984;BME280;15317;50.360;8.726;2023-03-13T02:36:53;98468.00;;;6.95;100.00
27984;BME280;15317;50.360;8.726;2023-03-13T02:40:56;98449.59;;;6.91;100.00
27984;BME280;15317;50.360;8.726;2023-03-13T02:45:02;98463.78;;;6.93;100.00
27984;BME280;15317;50.360;8.726;2023-03-13T02:49:18;98450.44;;;6.91;100.00
27984;BME280;15317;50.360;8.726;2023-03-13T02:53:20;98442.88;;;7.03;100.00
27984;BME280;15317;50.360;8.726;2023-03-13T02:57:22;98426.53;;;7.04;100.00
27984;BME280;15317;50.360;8.726;2023-03-13T03:01:26;98425.38;;;7.07;100.00
27984;BME280;15317;50.360;8.726;2023-03-13T03:05:28;98427.41;;;7.13;100.00
27984;BME280;15317;50.360;8.726;2023-03-13T03:09:30;98418.63;;;7.11;100.00
27984;BME280;15317;50.360;8.726;2023-03-13T03:13:32;98406.53;;;7.23;100.00
27984;BME280;15317;50.360;8.726;2023-03-13T03:17:36;98422.03;;;7.21;100.00
27984;BME280;15317;50.360;8.726;2023-03-13T03:21:38;98409.53;;;7.20;100.00
27984;BME280;15317;50.360;8.726;2023-03-13T03:25:40;98401.28;;;7.22;100.00
27984;BME280;15317;50.360;8.726;2023-03-13T03:29:43;98396.88;;;7.21;100.00
27984;BME280;15317;50.360;8.726;2023-03-13T03:33:47;98398.72;;;7.20;100.00
27984;BME280;15317;50.360;8.726;2023-03-13T03:37:49;98394.69;;;7.16;100.00
27984;BME280;15317;50.360;8.726;2023-03-13T03:41:51;98383.38;;;7.21;100.00
27984;BME280;15317;50.360;8.726;2023-03-13T03:45:53;98379.84;;;7.20;100.00
27984;BME280;15317;50.360;8.726;2023-03-13T03:49:56;98381.19;;;7.16;100.00
27984;BME280;15317;50.360;8.726;2023-03-13T03:53:58;98373.41;;;7.13;100.00
27984;BME280;15317;50.360;8.726;2023-03-13T03:58:00;98375.06;;;7.06;100.00
27984;BME280;15317;50.360;8.726;2023-03-13T04:02:02;98377.94;;;7.04;100.00
27984;BME280;15317;50.360;8.726;2023-03-13T04:06:06;98362.06;;;7.01;100.00
27984;BME280;15317;50.360;8.726;2023-03-13T04:10:10;98354.13;;;7.00;100.00
27984;BME280;15317;50.360;8.726;2023-03-13T04:14:12;98347.19;;;6.97;100.00
27984;BME280;15317;50.360;8.726;2023-03-13T04:18:14;98345.34;;;6.98;100.00
27984;BME280;15317;50.360;8.726;2023-03-13T04:26:20;98332.53;;;7.00;100.00
27984;BME280;15317;50.360;8.726;2023-03-13T04:30:22;98319.03;;;6.92;100.00
27984;BME280;15317;50.360;8.726;2023-03-13T04:34:25;98320.06;;;6.99;100.00
27984;BME280;15317;50.360;8.726;2023-03-13T04:38:27;98329.69;;;7.01;100.00
27984;BME280;15317;50.360;8.726;2023-03-13T04:42:30;98318.72;;;7.19;100.00
27984;BME280;15317;50.360;8.726;2023-03-13T04:46:32;98324.97;;;7.11;100.00
27984;BME280;15317;50.360;8.726;2023-03-13T04:50:34;98318.75;;;7.27;100.00
27984;BME280;15317;50.360;8.726;2023-03-13T04:54:36;98302.53;;;7.27;100.00
27984;BME280;15317;50.360;8.726;2023-03-13T04:58:39;98314.19;;;7.36;100.00
27984;BME280;15317;50.360;8.726;2023-03-13T05:02:41;98303.88;;;7.39;100.00
27984;BME280;15317;50.360;8.726;2023-03-13T05:06:43;98302.19;;;7.46;100.00
27984;BME280;15317;50.360;8.726;2023-03-13T05:10:45;98289.22;;;7.50;100.00
27984;BME280;15317;50.360;8.726;2023-03-13T05:14:49;98286.16;;;7.53;100.00
27984;BME280;15317;50.360;8.726;2023-03-13T05:18:52;98283.78;;;7.58;100.00
27984;BME280;15317;50.360;8.726;2023-03-13T05:22:54;98258.13;;;7.54;100.00
27984;BME280;15317;50.360;8.726;2023-03-13T05:26:56;98271.81;;;7.52;100.00
27984;BME280;15317;50.360;8.726;2023-03-13T05:30:59;98266.41;;;7.52;100.00
27984;BME280;15317;50.360;8.726;2023-03-13T05:35:01;98264.06;;;7.49;100.00
27984;BME280;15317;50.360;8.726;2023-03-13T05:39:03;98260.16;;;7.52;100.00
27984;BME280;15317;50.360;8.726;2023-03-13T05:43:05;98279.91;;;7.52;100.00
27984;BME280;15317;50.360;8.726;2023-03-13T05:47:08;98272.31;;;7.48;100.00
27984;BME280;15317;50.360;8.726;2023-03-13T05:51:10;98260.34;;;7.50;100.00
27984;BME280;15317;50.360;8.726;2023-03-13T05:55:12;98262.69;;;7.53;100.00
27984;BME280;15317;50.360;8.726;2023-03-13T05:59:15;98242.41;;;7.58;100.00
27984;BME280;15317;50.360;8.726;2023-03-13T06:03:18;98224.84;;;7.62;100.00
27984;BME280;15317;50.360;8.726;2023-03-13T06:07:20;98224.84;;;7.70;100.00
27984;BME280;15317;50.360;8.726;2023-03-13T06:11:22;98219.44;;;7.78;100.00
27984;BME280;15317;50.360;8.726;2023-03-13T06:15:24;98216.19;;;7.82;100.00
27984;BME280;15317;50.360;8.726;2023-03-13T06:19:27;98209.06;;;7.98;100.00
27984;BME280;15317;50.360;8.726;2023-03-13T06:23:29;98213.06;;;8.10;100.00
27984;BME280;15317;50.360;8.726;2023-03-13T06:27:31;98216.44;;;8.12;100.00
27984;BME280;15317;50.360;8.726;2023-03-13T06:31:33;98227.88;;;8.22;100.00
27984;BME280;15317;50.360;8.726;2023-03-13T06:35:38;98233.41;;;8.28;100.00
27984;BME280;15317;50.360;8.726;2023-03-13T06:39:40;98232.72;;;8.43;100.00
27984;BME280;15317;50.360;8.726;2023-03-13T06:43:42;98233.38;;;8.45;100.00
27984;BME280;15317;50.360;8.726;2023-03-13T06:47:44;98239.53;;;8.61;100.00
27984;BME280;15317;50.360;8.726;2023-03-13T06:51:48;98240.75;;;8.59;100.00
27984;BME280;15317;50.360;8.726;2023-03-13T06:55:50;98223.75;;;8.73;100.00
27984;BME280;15317;50.360;8.726;2023-03-13T06:59:52;98231.66;;;8.75;100.00
27984;BME280;15317;50.360;8.726;2023-03-13T07:03:54;98208.16;;;8.75;100.00
27984;BME280;15317;50.360;8.726;2023-03-13T07:07:57;98232.28;;;8.85;100.00
27984;BME280;15317;50.360;8.726;2023-03-13T07:12:00;98236.31;;;8.89;100.00
27984;BME280;15317;50.360;8.726;2023-03-13T07:16:04;98229.84;;;8.98;100.00
27984;BME280;15317;50.360;8.726;2023-03-13T07:20:08;98239.34;;;9.17;100.00
27984;BME280;15317;50.360;8.726;2023-03-13T07:24:12;98236.56;;;9.25;100.00
27984;BME280;15317;50.360;8.726;2023-03-13T07:28:14;98230.34;;;9.39;100.00
27984;BME280;15317;50.360;8.726;2023-03-13T07:32:16;98229.91;;;9.50;100.00
27984;BME280;15317;50.360;8.726;2023-03-13T07:36:18;98227.50;;;9.55;100.00
27984;BME280;15317;50.360;8.726;2023-03-13T07:40:21;98209.94;;;9.66;100.00
27984;BME280;15317;50.360;8.726;2023-03-13T07:44:23;98202.47;;;9.82;100.00
27984;BME280;15317;50.360;8.726;2023-03-13T07:48:28;98211.75;;;10.03;100.00
27984;BME280;15317;50.360;8.726;2023-03-13T07:52:30;98214.63;;;10.16;100.00
27984;BME280;15317;50.360;8.726;2023-03-13T07:56:34;98218.66;;;10.35;100.00
27984;BME280;15317;50.360;8.726;2023-03-13T08:00:35;98221.63;;;10.40;100.00
27984;BME280;15317;50.360;8.726;2023-03-13T08:04:37;98235.56;;;10.51;100.00
27984;BME280;15317;50.360;8.726;2023-03-13T08:08:40;98237.25;;;10.52;100.00
27984;BME280;15317;50.360;8.726;2023-03-13T08:12:44;98236.97;;;10.62;100.00
27984;BME280;15317;50.360;8.726;2023-03-13T08:16:46;98242.38;;;10.62;100.00
27984;BME280;15317;50.360;8.726;2023-03-13T08:20:48;98248.66;;;10.62;100.00
27984;BME280;15317;50.360;8.726;2023-03-13T08:24:50;98242.47;;;10.68;100.00
27984;BME280;15317;50.360;8.726;2023-03-13T08:28:56;98242.34;;;10.77;100.00
27984;BME280;15317;50.360;8.726;2023-03-13T08:32:58;98235.41;;;10.74;100.00
27984;BME280;15317;50.360;8.726;2023-03-13T08:37:00;98233.44;;;10.83;100.00
27984;BME280;15317;50.360;8.726;2023-03-13T08:41:02;98220.88;;;10.82;100.00
27984;BME280;15317;50.360;8.726;2023-03-13T08:45:06;98229.00;;;10.96;100.00
27984;BME280;15317;50.360;8.726;2023-03-13T08:49:09;98234.25;;;10.98;100.00
27984;BME280;15317;50.360;8.726;2023-03-13T08:53:12;98227.38;;;11.02;100.00
27984;BME280;15317;50.360;8.726;2023-03-13T08:57:13;98234.75;;;11.08;100.00
27984;BME280;15317;50.360;8.726;2023-03-13T09:01:18;98243.16;;;11.13;100.00
27984;BME280;15317;50.360;8.726;2023-03-13T09:05:20;98252.56;;;11.11;100.00
27984;BME280;15317;50.360;8.726;2023-03-13T09:09:22;98240.91;;;11.17;100.00
27984;BME280;15317;50.360;8.726;2023-03-13T09:13:25;98241.03;;;11.30;100.00
27984;BME280;15317;50.360;8.726;2023-03-13T09:17:29;98234.88;;;11.42;100.00
27984;BME280;15317;50.360;8.726;2023-03-13T09:21:32;98216.88;;;11.69;100.00
27984;BME280;15317;50.360;8.726;2023-03-13T09:25:36;98204.84;;;12.06;100.00
27984;BME280;15317;50.360;8.726;2023-03-13T09:29:39;98197.00;;;12.31;100.00
27984;BME280;15317;50.360;8.726;2023-03-13T09:33:44;98195.84;;;12.53;100.00
27984;BME280;15317;50.360;8.726;2023-03-13T09:37:46;98174.97;;;12.74;100.00
27984;BME280;15317;50.360;8.726;2023-03-13T09:41:52;98172.28;;;12.93;100.00
27984;BME280;15317;50.360;8.726;2023-03-13T09:45:59;98152.63;;;13.18;100.00
27984;BME280;15317;50.360;8.726;2023-03-13T09:50:08;98156.78;;;13.07;100.00
27984;BME280;15317;50.360;8.726;2023-03-13T09:54:21;98142.78;;;13.17;100.00
27984;BME280;15317;50.360;8.726;2023-03-13T09:58:26;98137.34;;;13.23;100.00
27984;BME280;15317;50.360;8.726;2023-03-13T10:02:30;98162.91;;;13.29;100.00
27984;BME280;15317;50.360;8.726;2023-03-13T10:06:37;98177.59;;;13.54;100.00
27984;BME280;15317;50.360;8.726;2023-03-13T10:10:44;98169.59;;;13.59;100.00
27984;BME280;15317;50.360;8.726;2023-03-13T10:14:56;98182.63;;;13.57;100.00
27984;BME280;15317;50.360;8.726;2023-03-13T10:19:10;98190.56;;;13.72;100.00
27984;BME280;15317;50.360;8.726;2023-03-13T10:23:18;98171.72;;;13.57;100.00
27984;BME280;15317;50.360;8.726;2023-03-13T10:27:22;98162.47;;;13.65;100.00
27984;BME280;15317;50.360;8.726;2023-03-13T10:31:29;98149.66;;;13.59;100.00
27984;BME280;15317;50.360;8.726;2023-03-13T10:35:34;98148.81;;;13.58;100.00
27984;BME280;15317;50.360;8.726;2023-03-13T10:39:38;98151.16;;;13.61;100.00
27984;BME280;15317;50.360;8.726;2023-03-13T10:43:49;98155.38;;;13.51;100.00
27984;BME280;15317;50.360;8.726;2023-03-13T10:47:55;98154.94;;;13.47;100.00
27984;BME280;15317;50.360;8.726;2023-03-13T10:51:59;98168.38;;;13.42;100.00
27984;BME280;15317;50.360;8.726;2023-03-13T10:56:09;98163.56;;;13.44;100.00
27984;BME280;15317;50.360;8.726;2023-03-13T11:00:29;98170.47;;;13.40;100.00
27984;BME280;15317;50.360;8.726;2023-03-13T11:04:35;98168.78;;;13.39;100.00
27984;BME280;15317;50.360;8.726;2023-03-13T11:08:40;98156.19;;;13.44;100.00
27984;BME280;15317;50.360;8.726;2023-03-13T11:12:46;98144.84;;;13.54;100.00
27984;BME280;15317;50.360;8.726;2023-03-13T11:16:49;98140.44;;;13.53;100.00
27984;BME280;15317;50.360;8.726;2023-03-13T11:20:52;98145.25;;;13.51;100.00
27984;BME280;15317;50.360;8.726;2023-03-13T11:25:02;98150.50;;;13.53;100.00
27984;BME280;15317;50.360;8.726;2023-03-13T11:29:14;98148.63;;;13.27;100.00
27984;BME280;15317;50.360;8.726;2023-03-13T11:33:27;98140.63;;;13.05;100.00
27984;BME280;15317;50.360;8.726;2023-03-13T11:37:32;98137.25;;;12.90;100.00
27984;BME280;15317;50.360;8.726;2023-03-13T11:41:44;98123.84;;;12.82;100.00
27984;BME280;15317;50.360;8.726;2023-03-13T11:46:02;98141.66;;;12.91;100.00
27984;BME280;15317;50.360;8.726;2023-03-13T11:50:14;98113.16;;;12.87;100.00
27984;BME280;15317;50.360;8.726;2023-03-13T11:54:31;98094.50;;;12.91;100.00
27984;BME280;15317;50.360;8.726;2023-03-13T11:58:44;98093.25;;;13.00;100.00
27984;BME280;15317;50.360;8.726;2023-03-13T12:02:55;98081.50;;;12.99;100.00
27984;BME280;15317;50.360;8.726;2023-03-13T12:07:00;98082.75;;;13.03;100.00
27984;BME280;15317;50.360;8.726;2023-03-13T12:11:08;98060.34;;;12.95;100.00
27984;BME280;15317;50.360;8.726;2023-03-13T12:15:20;98063.47;;;12.98;100.00
27984;BME280;15317;50.360;8.726;2023-03-13T12:19:30;98067.69;;;12.88;100.00
27984;BME280;15317;50.360;8.726;2023-03-13T12:23:41;98056.78;;;12.81;100.00
27984;BME280;15317;50.360;8.726;2023-03-13T12:27:48;98051.31;;;12.88;100.00
27984;BME280;15317;50.360;8.726;2023-03-13T12:31:56;98059.69;;;12.99;100.00
27984;BME280;15317;50.360;8.726;2023-03-13T12:36:06;98050.88;;;12.97;100.00
27984;BME280;15317;50.360;8.726;2023-03-13T12:40:15;98038.94;;;12.98;100.00
27984;BME280;15317;50.360;8.726;2023-03-13T12:44:22;98027.00;;;13.13;100.00
27984;BME280;15317;50.360;8.726;2023-03-13T12:48:41;98025.31;;;13.05;100.00
27984;BME280;15317;50.360;8.726;2023-03-13T12:57:57;98008.94;;;13.12;100.00
27984;BME280;15317;50.360;8.726;2023-03-13T13:02:01;97989.03;;;13.11;100.00
27984;BME280;15317;50.360;8.726;2023-03-13T13:06:10;97983.00;;;13.16;100.00
27984;BME280;15317;50.360;8.726;2023-03-13T13:10:16;97976.22;;;13.31;100.00
27984;BME280;15317;50.360;8.726;2023-03-13T13:15:01;97964.16;;;13.59;100.00
27984;BME280;15317;50.360;8.726;2023-03-13T13:23:40;97955.59;;;13.55;100.00
27984;BME280;15317;50.360;8.726;2023-03-13T13:27:46;97932.91;;;13.61;100.00
27984;BME280;15317;50.360;8.726;2023-03-13T13:31:55;97924.06;;;13.66;100.00
27984;BME280;15317;50.360;8.726;2023-03-13T13:40:37;97894.94;;;13.98;100.00
27984;BME280;15317;50.360;8.726;2023-03-13T13:44:57;97884.91;;;14.16;100.00
27984;BME280;15317;50.360;8.726;2023-03-13T13:49:14;97878.25;;;14.37;100.00
27984;BME280;15317;50.360;8.726;2023-03-13T13:53:29;97852.50;;;14.51;100.00
27984;BME280;15317;50.360;8.726;2023-03-13T13:57:33;97838.09;;;14.62;100.00
27984;BME280;15317;50.360;8.726;2023-03-13T14:01:37;97844.66;;;14.80;100.00
27984;BME280;15317;50.360;8.726;2023-03-13T14:05:42;97830.22;;;14.91;100.00
27984;BME280;15317;50.360;8.726;2023-03-13T14:09:53;97825.47;;;14.86;100.00
27984;BME280;15317;50.360;8.726;2023-03-13T14:14:08;97811.03;;;14.79;100.00
27984;BME280;15317;50.360;8.726;2023-03-13T14:18:14;97793.78;;;14.79;100.00
27984;BME280;15317;50.360;8.726;2023-03-13T14:22:21;97793.66;;;14.74;100.00
27984;BME280;15317;50.360;8.726;2023-03-13T14:26:24;97787.16;;;14.68;100.00
27984;BME280;15317;50.360;8.726;2023-03-13T14:30:27;97775.94;;;14.58;100.00
27984;BME280;15317;50.360;8.726;2023-03-13T14:34:29;97752.59;;;14.37;100.00
27984;BME280;15317;50.360;8.726;2023-03-13T14:38:32;97751.97;;;14.17;100.00
27984;BME280;15317;50.360;8.726;2023-03-13T14:42:38;97744.56;;;13.99;100.00
27984;BME280;15317;50.360;8.726;2023-03-13T14:46:42;97735.66;;;13.85;100.00
27984;BME280;15317;50.360;8.726;2023-03-13T14:50:44;97746.94;;;13.71;100.00
27984;BME280;15317;50.360;8.726;2023-03-13T14:54:53;97752.91;;;13.55;100.00
27984;BME280;15317;50.360;8.726;2023-03-13T14:59:05;97732.09;;;13.35;100.00
27984;BME280;15317;50.360;8.726;2023-03-13T15:03:22;97751.06;;;13.17;100.00
27984;BME280;15317;50.360;8.726;2023-03-13T15:07:27;97722.41;;;13.01;100.00
27984;BME280;15317;50.360;8.726;2023-03-13T15:11:40;97689.53;;;12.96;100.00
27984;BME280;15317;50.360;8.726;2023-03-13T15:15:42;97669.88;;;12.88;100.00
27984;BME280;15317;50.360;8.726;2023-03-13T15:19:52;97683.66;;;12.93;100.00
27984;BME280;15317;50.360;8.726;2023-03-13T15:23:57;97675.72;;;12.91;100.00
27984;BME280;15317;50.360;8.726;2023-03-13T15:28:01;97657.09;;;12.88;100.00
27984;BME280;15317;50.360;8.726;2023-03-13T15:32:04;97631.56;;;12.83;100.00
27984;BME280;15317;50.360;8.726;2023-03-13T15:36:06;97603.13;;;12.72;100.00
27984;BME280;15317;50.360;8.726;2023-03-13T15:40:13;97612.16;;;12.66;100.00
27984;BME280;15317;50.360;8.726;2023-03-13T15:44:16;97605.31;;;12.57;100.00
27984;BME280;15317;50.360;8.726;2023-03-13T15:48:20;97615.63;;;12.48;100.00
27984;BME280;15317;50.360;8.726;2023-03-13T15:52:22;97602.44;;;12.45;100.00
27984;BME280;15317;50.360;8.726;2023-03-13T15:56:29;97595.09;;;12.46;100.00
27984;BME280;15317;50.360;8.726;2023-03-13T16:00:36;97597.66;;;12.41;100.00
27984;BME280;15317;50.360;8.726;2023-03-13T16:04:38;97593.69;;;12.37;100.00
27984;BME280;15317;50.360;8.726;2023-03-13T16:08:40;97582.59;;;12.38;100.00
27984;BME280;15317;50.360;8.726;2023-03-13T16:12:42;97616.16;;;12.25;100.00
27984;BME280;15317;50.360;8.726;2023-03-13T16:16:46;97607.34;;;12.23;100.00
27984;BME280;15317;50.360;8.726;2023-03-13T16:20:50;97585.34;;;12.32;100.00
27984;BME280;15317;50.360;8.726;2023-03-13T16:24:52;97589.19;;;12.55;100.00
27984;BME280;15317;50.360;8.726;2023-03-13T16:28:54;97579.91;;;12.63;100.00
27984;BME280;15317;50.360;8.726;2023-03-13T16:32:59;97584.84;;;12.79;100.00
27984;BME280;15317;50.360;8.726;2023-03-13T16:37:01;97581.44;;;12.84;100.00
27984;BME280;15317;50.360;8.726;2023-03-13T16:41:03;97564.16;;;12.72;100.00
27984;BME280;15317;50.360;8.726;2023-03-13T16:45:06;97553.50;;;12.63;100.00
27984;BME280;15317;50.360;8.726;2023-03-13T16:49:13;97565.34;;;12.51;100.00
27984;BME280;15317;50.360;8.726;2023-03-13T16:53:15;97565.44;;;12.31;100.00
27984;BME280;15317;50.360;8.726;2023-03-13T16:57:22;97583.50;;;12.25;100.00
27984;BME280;15317;50.360;8.726;2023-03-13T17:01:24;97589.00;;;12.12;100.00
27984;BME280;15317;50.360;8.726;2023-03-13T17:05:28;97604.94;;;12.02;100.00
27984;BME280;15317;50.360;8.726;2023-03-13T17:09:30;97615.00;;;11.88;100.00
27984;BME280;15317;50.360;8.726;2023-03-13T17:13:32;97603.75;;;11.78;100.00
27984;BME280;15317;50.360;8.726;2023-03-13T17:17:34;97607.09;;;11.74;100.00
27984;BME280;15317;50.360;8.726;2023-03-13T17:21:37;97589.50;;;11.70;100.00
27984;BME280;15317;50.360;8.726;2023-03-13T17:25:39;97570.53;;;11.57;100.00
27984;BME280;15317;50.360;8.726;2023-03-13T17:29:41;97573.66;;;11.54;100.00
27984;BME280;15317;50.360;8.726;2023-03-13T17:33:44;97552.75;;;11.54;100.00
27984;BME280;15317;50.360;8.726;2023-03-13T17:37:48;97564.66;;;11.46;100.00
27984;BME280;15317;50.360;8.726;2023-03-13T17:41:50;97567.84;;;11.43;100.00
27984;BME280;15317;50.360;8.726;2023-03-13T17:45:52;97541.06;;;11.34;100.00
27984;BME280;15317;50.360;8.726;2023-03-13T17:49:54;97532.50;;;11.43;100.00
27984;BME280;15317;50.360;8.726;2023-03-13T17:53:58;97533.16;;;11.32;100.00
27984;BME280;15317;50.360;8.726;2023-03-13T17:58:00;97526.47;;;11.28;100.00
27984;BME280;15317;50.360;8.726;2023-03-13T18:02:02;97540.69;;;11.30;100.00
27984;BME280;15317;50.360;8.726;2023-03-13T18:06:04;97524.41;;;11.17;100.00
27984;BME280;15317;50.360;8.726;2023-03-13T18:10:14;97503.06;;;11.14;100.00
27984;BME280;15317;50.360;8.726;2023-03-13T18:14:17;97519.38;;;11.07;100.00
27984;BME280;15317;50.360;8.726;2023-03-13T18:18:19;97518.72;;;11.32;100.00
27984;BME280;15317;50.360;8.726;2023-03-13T18:22:21;97509.72;;;11.44;100.00
27984;BME280;15317;50.360;8.726;2023-03-13T18:26:28;97479.59;;;11.46;100.00
27984;BME280;15317;50.360;8.726;2023-03-13T18:30:31;97466.59;;;11.48;100.00
27984;BME280;15317;50.360;8.726;2023-03-13T18:34:33;97476.63;;;11.47;100.00
27984;BME280;15317;50.360;8.726;2023-03-13T18:38:36;97474.72;;;11.55;100.00
27984;BME280;15317;50.360;8.726;2023-03-13T18:42:39;97467.38;;;11.62;100.00
27984;BME280;15317;50.360;8.726;2023-03-13T18:46:41;97473.84;;;11.67;100.00
27984;BME280;15317;50.360;8.726;2023-03-13T18:50:43;97493.31;;;11.64;100.00
27984;BME280;15317;50.360;8.726;2023-03-13T18:54:45;97490.38;;;11.72;100.00
27984;BME280;15317;50.360;8.726;2023-03-13T18:58:50;97492.47;;;11.70;100.00
27984;BME280;15317;50.360;8.726;2023-03-13T19:02:53;97500.00;;;11.75;100.00
27984;BME280;15317;50.360;8.726;2023-03-13T19:06:55;97508.78;;;11.77;100.00
27984;BME280;15317;50.360;8.726;2023-03-13T19:10:57;97516.31;;;11.75;100.00
27984;BME280;15317;50.360;8.726;2023-03-13T19:15:00;97482.00;;;11.74;100.00
27984;BME280;15317;50.360;8.726;2023-03-13T19:19:03;97461.28;;;11.73;100.00
27984;BME280;15317;50.360;8.726;2023-03-13T19:23:08;97463.59;;;11.69;100.00
27984;BME280;15317;50.360;8.726;2023-03-13T19:27:11;97482.00;;;11.74;100.00
27984;BME280;15317;50.360;8.726;2023-03-13T19:31:16;97503.75;;;11.67;100.00
27984;BME280;15317;50.360;8.726;2023-03-13T19:35:18;97515.28;;;11.63;100.00
27984;BME280;15317;50.360;8.726;2023-03-13T19:39:22;97487.91;;;11.58;100.00
27984;BME280;15317;50.360;8.726;2023-03-13T19:43:25;97417.22;;;11.58;100.00
27984;BME280;15317;50.360;8.726;2023-03-13T19:47:29;97474.13;;;11.53;100.00
27984;BME280;15317;50.360;8.726;2023-03-13T19:51:31;97441.06;;;11.56;100.00
27984;BME280;15317;50.360;8.726;2023-03-13T19:55:32;97420.81;;;11.52;100.00
27984;BME280;15317;50.360;8.726;2023-03-13T19:59:34;97434.81;;;11.48;100.00
27984;BME280;15317;50.360;8.726;2023-03-13T20:03:40;97426.50;;;11.43;100.00
27984;BME280;15317;50.360;8.726;2023-03-13T20:07:43;97463.31;;;11.26;100.00
27984;BME280;15317;50.360;8.726;2023-03-13T20:11:45;97450.00;;;11.18;100.00
27984;BME280;15317;50.360;8.726;2023-03-13T20:15:47;97421.78;;;11.13;100.00
27984;BME280;15317;50.360;8.726;2023-03-13T20:19:50;97400.69;;;11.08;100.00
27984;BME280;15317;50.360;8.726;2023-03-13T20:23:52;97423.47;;;11.07;100.00
27984;BME280;15317;50.360;8.726;2023-03-13T20:27:54;97408.66;;;11.03;100.00
27984;BME280;15317;50.360;8.726;2023-03-13T20:31:56;97401.38;;;10.97;100.00
27984;BME280;15317;50.360;8.726;2023-03-13T20:36:03;97420.78;;;10.94;100.00
27984;BME280;15317;50.360;8.726;2023-03-13T20:40:06;97424.13;;;10.96;100.00
27984;BME280;15317;50.360;8.726;2023-03-13T20:44:10;97430.59;;;10.95;100.00
27984;BME280;15317;50.360;8.726;2023-03-13T20:48:12;97417.88;;;10.89;100.00
27984;BME280;15317;50.360;8.726;2023-03-13T20:52:16;97408.69;;;10.90;100.00
27984;BME280;15317;50.360;8.726;2023-03-13T20:56:18;97412.25;;;10.84;100.00
27984;BME280;15317;50.360;8.726;2023-03-13T21:00:20;97409.13;;;10.74;100.00
27984;BME280;15317;50.360;8.726;2023-03-13T21:04:23;97381.59;;;10.63;100.00
27984;BME280;15317;50.360;8.726;2023-03-13T21:08:26;97373.03;;;10.60;100.00
27984;BME280;15317;50.360;8.726;2023-03-13T21:12:28;97381.19;;;10.53;100.00
27984;BME280;15317;50.360;8.726;2023-03-13T21:16:30;97368.25;;;10.49;100.00
27984;BME280;15317;50.360;8.726;2023-03-13T21:20:32;97381.00;;;10.35;100.00
27984;BME280;15317;50.360;8.726;2023-03-13T21:24:35;97364.09;;;10.33;100.00
27984;BME280;15317;50.360;8.726;2023-03-13T21:28:38;97379.34;;;10.21;100.00
27984;BME280;15317;50.360;8.726;2023-03-13T21:32:40;97374.13;;;10.19;100.00
27984;BME280;15317;50.360;8.726;2023-03-13T21:36:42;97362.59;;;10.11;100.00
27984;BME280;15317;50.360;8.726;2023-03-13T21:40:45;97354.91;;;10.14;100.00
27984;BME280;15317;50.360;8.726;2023-03-13T21:44:47;97343.22;;;10.14;100.00